sensor_id;sensor_type;location;lat;lon;timestamp;P1;durP1;ratioP1;P2;durP2;ratioP2
4553;SDS011;2289;48.316;15.174;2022-08-19T00:01:39;9.60;;;3.37;;
4553;SDS011;2289;48.316;15.174;2022-08-19T00:04:10;21.47;;;4.77;;
4553;SDS011;2289;48.316;15.174;2022-08-19T00:06:42;6.30;;;3.30;;
4553;SDS011;2289;48.316;15.174;2022-08-19T00:09:13;8.67;;;3.30;;
4553;SDS011;2289;48.316;15.174;2022-08-19T00:11:43;7.10;;;3.47;;
4553;SDS011;2289;48.316;15.174;2022-08-19T00:14:13;5.10;;;2.57;;
4553;SDS011;2289;48.316;15.174;2022-08-19T00:16:43;15.77;;;4.10;;
4553;SDS011;2289;48.316;15.174;2022-08-19T00:19:13;7.23;;;2.70;;
4553;SDS011;2289;48.316;15.174;2022-08-19T00:21:41;8.20;;;3.47;;
4553;SDS011;2289;48.316;15.174;2022-08-19T00:24:10;13.20;;;2.97;;
4553;SDS011;2289;48.316;15.174;2022-08-19T00:26:40;7.73;;;3.10;;
4553;SDS011;2289;48.316;15.174;2022-08-19T00:29:09;10.10;;;3.00;;
4553;SDS011;2289;48.316;15.174;2022-08-19T00:31:39;9.73;;;2.90;;
4553;SDS011;2289;48.316;15.174;2022-08-19T00:34:08;4.60;;;3.37;;
4553;SDS011;2289;48.316;15.174;2022-08-19T00:36:37;6.03;;;3.07;;
4553;SDS011;2289;48.316;15.174;2022-08-19T00:39:06;5.53;;;3.27;;
4553;SDS011;2289;48.316;15.174;2022-08-19T00:41:34;9.70;;;3.90;;
4553;SDS011;2289;48.316;15.174;2022-08-19T00:44:04;5.87;;;3.27;;
4553;SDS011;2289;48.316;15.174;2022-08-19T00:46:35;4.43;;;2.50;;
4553;SDS011;2289;48.316;15.174;2022-08-19T00:49:06;7.20;;;3.50;;
4553;SDS011;2289;48.316;15.174;2022-08-19T00:51:40;6.40;;;3.50;;
4553;SDS011;2289;48.316;15.174;2022-08-19T00:54:08;6.93;;;3.43;;
4553;SDS011;2289;48.316;15.174;2022-08-19T00:56:37;6.60;;;2.83;;
4553;SDS011;2289;48.316;15.174;2022-08-19T00:59:07;6.60;;;3.03;;
4553;SDS011;2289;48.316;15.174;2022-08-19T01:01:35;10.83;;;4.10;;
4553;SDS011;2289;48.316;15.174;2022-08-19T01:04:04;6.10;;;3.37;;
4553;SDS011;2289;48.316;15.174;2022-08-19T01:06:32;9.53;;;3.03;;
4553;SDS011;2289;48.316;15.174;2022-08-19T01:09:02;15.10;;;4.00;;
4553;SDS011;2289;48.316;15.174;2022-08-19T01:11:31;6.40;;;4.40;;
4553;SDS011;2289;48.316;15.174;2022-08-19T01:14:02;5.93;;;4.07;;
4553;SDS011;2289;48.316;15.174;2022-08-19T01:16:30;8.17;;;4.17;;
4553;SDS011;2289;48.316;15.174;2022-08-19T01:18:59;11.20;;;4.43;;
4553;SDS011;2289;48.316;15.174;2022-08-19T01:21:30;5.10;;;3.10;;
4553;SDS011;2289;48.316;15.174;2022-08-19T01:24:01;7.93;;;3.50;;
4553;SDS011;2289;48.316;15.174;2022-08-19T01:26:30;7.23;;;3.30;;
4553;SDS011;2289;48.316;15.174;2022-08-19T01:28:58;9.90;;;3.73;;
4553;SDS011;2289;48.316;15.174;2022-08-19T01:31:30;5.80;;;3.60;;
4553;SDS011;2289;48.316;15.174;2022-08-19T01:33:59;10.77;;;3.80;;
4553;SDS011;2289;48.316;15.174;2022-08-19T01:36:30;8.73;;;3.93;;
4553;SDS011;2289;48.316;15.174;2022-08-19T01:39:00;7.63;;;3.90;;
4553;SDS011;2289;48.316;15.174;2022-08-19T01:41:31;6.47;;;3.53;;
4553;SDS011;2289;48.316;15.174;2022-08-19T01:43:59;18.07;;;4.17;;
4553;SDS011;2289;48.316;15.174;2022-08-19T01:46:44;9.00;;;3.63;;
4553;SDS011;2289;48.316;15.174;2022-08-19T01:49:14;4.13;;;3.73;;
4553;SDS011;2289;48.316;15.174;2022-08-19T01:51:43;9.00;;;3.60;;
4553;SDS011;2289;48.316;15.174;2022-08-19T01:54:15;13.40;;;4.03;;
4553;SDS011;2289;48.316;15.174;2022-08-19T01:56:53;13.50;;;4.37;;
4553;SDS011;2289;48.316;15.174;2022-08-19T01:59:23;12.43;;;3.67;;
4553;SDS011;2289;48.316;15.174;2022-08-19T02:01:52;11.40;;;5.57;;
4553;SDS011;2289;48.316;15.174;2022-08-19T02:04:20;9.50;;;3.67;;
4553;SDS011;2289;48.316;15.174;2022-08-19T02:06:49;6.20;;;3.93;;
4553;SDS011;2289;48.316;15.174;2022-08-19T02:09:19;4.57;;;3.53;;
4553;SDS011;2289;48.316;15.174;2022-08-19T02:11:47;6.57;;;3.60;;
4553;SDS011;2289;48.316;15.174;2022-08-19T02:14:15;4.53;;;2.97;;
4553;SDS011;2289;48.316;15.174;2022-08-19T02:16:43;11.43;;;3.50;;
4553;SDS011;2289;48.316;15.174;2022-08-19T02:19:12;13.00;;;5.00;;
4553;SDS011;2289;48.316;15.174;2022-08-19T02:21:40;8.30;;;3.43;;
4553;SDS011;2289;48.316;15.174;2022-08-19T02:24:10;5.70;;;3.47;;
4553;SDS011;2289;48.316;15.174;2022-08-19T02:26:40;7.23;;;4.00;;
4553;SDS011;2289;48.316;15.174;2022-08-19T02:29:08;6.00;;;4.37;;
4553;SDS011;2289;48.316;15.174;2022-08-19T02:31:36;6.23;;;4.27;;
4553;SDS011;2289;48.316;15.174;2022-08-19T02:34:04;4.03;;;3.40;;
4553;SDS011;2289;48.316;15.174;2022-08-19T02:36:32;4.10;;;3.70;;
4553;SDS011;2289;48.316;15.174;2022-08-19T02:39:00;6.93;;;4.10;;
4553;SDS011;2289;48.316;15.174;2022-08-19T02:41:28;8.50;;;4.20;;
4553;SDS011;2289;48.316;15.174;2022-08-19T02:44:00;6.20;;;4.20;;
4553;SDS011;2289;48.316;15.174;2022-08-19T02:46:50;8.53;;;4.50;;
4553;SDS011;2289;48.316;15.174;2022-08-19T02:49:18;8.37;;;3.90;;
4553;SDS011;2289;48.316;15.174;2022-08-19T02:51:47;7.53;;;5.17;;
4553;SDS011;2289;48.316;15.174;2022-08-19T02:54:15;9.53;;;4.77;;
4553;SDS011;2289;48.316;15.174;2022-08-19T02:56:43;8.43;;;4.50;;
4553;SDS011;2289;48.316;15.174;2022-08-19T02:59:14;9.83;;;4.30;;
4553;SDS011;2289;48.316;15.174;2022-08-19T03:01:42;7.20;;;4.63;;
4553;SDS011;2289;48.316;15.174;2022-08-19T03:04:12;9.10;;;3.90;;
4553;SDS011;2289;48.316;15.174;2022-08-19T03:06:43;7.57;;;4.10;;
4553;SDS011;2289;48.316;15.174;2022-08-19T03:09:13;8.17;;;4.77;;
4553;SDS011;2289;48.316;15.174;2022-08-19T03:11:42;6.73;;;4.20;;
4553;SDS011;2289;48.316;15.174;2022-08-19T03:14:10;5.50;;;4.73;;
4553;SDS011;2289;48.316;15.174;2022-08-19T03:16:41;5.37;;;4.17;;
4553;SDS011;2289;48.316;15.174;2022-08-19T03:19:11;7.67;;;3.87;;
4553;SDS011;2289;48.316;15.174;2022-08-19T03:21:40;10.10;;;5.20;;
4553;SDS011;2289;48.316;15.174;2022-08-19T03:24:11;8.23;;;4.60;;
4553;SDS011;2289;48.316;15.174;2022-08-19T03:26:41;8.03;;;3.80;;
4553;SDS011;2289;48.316;15.174;2022-08-19T03:29:10;12.07;;;5.73;;
4553;SDS011;2289;48.316;15.174;2022-08-19T03:31:41;9.13;;;5.30;;
4553;SDS011;2289;48.316;15.174;2022-08-19T03:34:18;8.37;;;5.10;;
4553;SDS011;2289;48.316;15.174;2022-08-19T03:36:48;6.80;;;5.37;;
4553;SDS011;2289;48.316;15.174;2022-08-19T03:39:16;7.70;;;6.10;;
4553;SDS011;2289;48.316;15.174;2022-08-19T03:41:45;11.53;;;5.20;;
4553;SDS011;2289;48.316;15.174;2022-08-19T03:44:35;6.30;;;4.73;;
4553;SDS011;2289;48.316;15.174;2022-08-19T03:47:06;13.97;;;4.87;;
4553;SDS011;2289;48.316;15.174;2022-08-19T03:49:34;8.90;;;5.07;;
4553;SDS011;2289;48.316;15.174;2022-08-19T03:52:03;8.23;;;4.73;;
4553;SDS011;2289;48.316;15.174;2022-08-19T03:54:34;7.60;;;4.40;;
4553;SDS011;2289;48.316;15.174;2022-08-19T03:57:04;7.33;;;5.00;;
4553;SDS011;2289;48.316;15.174;2022-08-19T03:59:33;9.03;;;5.80;;
4553;SDS011;2289;48.316;15.174;2022-08-19T04:02:11;8.00;;;5.43;;
4553;SDS011;2289;48.316;15.174;2022-08-19T04:04:41;9.60;;;5.13;;
4553;SDS011;2289;48.316;15.174;2022-08-19T04:07:11;8.30;;;5.13;;
4553;SDS011;2289;48.316;15.174;2022-08-19T04:09:42;10.43;;;4.70;;
4553;SDS011;2289;48.316;15.174;2022-08-19T04:12:10;5.57;;;4.90;;
4553;SDS011;2289;48.316;15.174;2022-08-19T04:14:38;6.03;;;4.90;;
4553;SDS011;2289;48.316;15.174;2022-08-19T04:17:07;10.60;;;5.17;;
4553;SDS011;2289;48.316;15.174;2022-08-19T04:19:36;11.47;;;4.90;;
4553;SDS011;2289;48.316;15.174;2022-08-19T04:22:05;7.57;;;5.07;;
4553;SDS011;2289;48.316;15.174;2022-08-19T04:24:33;6.17;;;4.97;;
4553;SDS011;2289;48.316;15.174;2022-08-19T04:27:02;7.17;;;5.23;;
4553;SDS011;2289;48.316;15.174;2022-08-19T04:29:32;6.20;;;4.40;;
4553;SDS011;2289;48.316;15.174;2022-08-19T04:32:00;5.37;;;4.53;;
4553;SDS011;2289;48.316;15.174;2022-08-19T04:34:34;7.37;;;5.10;;
4553;SDS011;2289;48.316;15.174;2022-08-19T04:37:24;11.00;;;5.70;;
4553;SDS011;2289;48.316;15.174;2022-08-19T04:40:00;11.10;;;6.17;;
4553;SDS011;2289;48.316;15.174;2022-08-19T04:42:46;7.30;;;4.97;;
4553;SDS011;2289;48.316;15.174;2022-08-19T04:45:14;6.47;;;5.70;;
4553;SDS011;2289;48.316;15.174;2022-08-19T04:47:43;8.80;;;5.60;;
4553;SDS011;2289;48.316;15.174;2022-08-19T04:50:25;6.90;;;6.30;;
4553;SDS011;2289;48.316;15.174;2022-08-19T04:52:54;6.20;;;5.60;;
4553;SDS011;2289;48.316;15.174;2022-08-19T04:55:23;7.03;;;5.27;;
4553;SDS011;2289;48.316;15.174;2022-08-19T04:57:53;9.70;;;6.00;;
4553;SDS011;2289;48.316;15.174;2022-08-19T05:00:21;12.50;;;5.80;;
4553;SDS011;2289;48.316;15.174;2022-08-19T05:02:49;10.53;;;6.17;;
4553;SDS011;2289;48.316;15.174;2022-08-19T05:05:18;9.13;;;5.57;;
4553;SDS011;2289;48.316;15.174;2022-08-19T05:07:47;13.77;;;6.07;;
4553;SDS011;2289;48.316;15.174;2022-08-19T05:10:15;9.03;;;6.20;;
4553;SDS011;2289;48.316;15.174;2022-08-19T05:12:44;10.93;;;6.70;;
4553;SDS011;2289;48.316;15.174;2022-08-19T05:15:12;14.07;;;7.50;;
4553;SDS011;2289;48.316;15.174;2022-08-19T05:17:40;24.83;;;18.80;;
4553;SDS011;2289;48.316;15.174;2022-08-19T05:20:29;33.23;;;26.63;;
4553;SDS011;2289;48.316;15.174;2022-08-19T05:23:16;35.67;;;28.10;;
4553;SDS011;2289;48.316;15.174;2022-08-19T05:25:48;41.70;;;31.73;;
4553;SDS011;2289;48.316;15.174;2022-08-19T05:28:18;35.33;;;29.60;;
4553;SDS011;2289;48.316;15.174;2022-08-19T05:30:47;32.27;;;28.93;;
4553;SDS011;2289;48.316;15.174;2022-08-19T05:33:17;25.03;;;22.47;;
4553;SDS011;2289;48.316;15.174;2022-08-19T05:35:45;29.17;;;25.20;;
4553;SDS011;2289;48.316;15.174;2022-08-19T05:38:17;26.57;;;23.87;;
4553;SDS011;2289;48.316;15.174;2022-08-19T05:40:46;23.93;;;21.63;;
4553;SDS011;2289;48.316;15.174;2022-08-19T05:43:14;30.27;;;27.17;;
4553;SDS011;2289;48.316;15.174;2022-08-19T05:45:43;28.60;;;25.70;;
4553;SDS011;2289;48.316;15.174;2022-08-19T05:48:11;26.53;;;23.93;;
4553;SDS011;2289;48.316;15.174;2022-08-19T05:50:41;27.27;;;24.30;;
4553;SDS011;2289;48.316;15.174;2022-08-19T05:53:11;29.17;;;26.17;;
4553;SDS011;2289;48.316;15.174;2022-08-19T05:55:44;25.23;;;22.73;;
4553;SDS011;2289;48.316;15.174;2022-08-19T05:58:12;21.77;;;19.63;;
4553;SDS011;2289;48.316;15.174;2022-08-19T06:00:42;20.07;;;18.20;;
4553;SDS011;2289;48.316;15.174;2022-08-19T06:03:12;21.80;;;19.80;;
4553;SDS011;2289;48.316;15.174;2022-08-19T06:05:40;17.37;;;15.57;;
4553;SDS011;2289;48.316;15.174;2022-08-19T06:08:17;20.23;;;18.33;;
4553;SDS011;2289;48.316;15.174;2022-08-19T06:11:10;26.80;;;24.10;;
4553;SDS011;2289;48.316;15.174;2022-08-19T06:13:40;25.70;;;23.20;;
4553;SDS011;2289;48.316;15.174;2022-08-19T06:16:08;29.17;;;26.13;;
4553;SDS011;2289;48.316;15.174;2022-08-19T06:18:36;23.30;;;20.90;;
4553;SDS011;2289;48.316;15.174;2022-08-19T06:21:05;24.03;;;21.70;;
4553;SDS011;2289;48.316;15.174;2022-08-19T06:23:33;22.63;;;20.63;;
4553;SDS011;2289;48.316;15.174;2022-08-19T06:26:03;23.43;;;21.13;;
4553;SDS011;2289;48.316;15.174;2022-08-19T06:28:31;22.03;;;19.93;;
4553;SDS011;2289;48.316;15.174;2022-08-19T06:31:05;21.97;;;19.87;;
4553;SDS011;2289;48.316;15.174;2022-08-19T06:33:34;21.20;;;19.30;;
4553;SDS011;2289;48.316;15.174;2022-08-19T06:36:05;18.23;;;16.53;;
4553;SDS011;2289;48.316;15.174;2022-08-19T06:38:33;18.93;;;17.20;;
4553;SDS011;2289;48.316;15.174;2022-08-19T06:41:03;18.23;;;16.50;;
4553;SDS011;2289;48.316;15.174;2022-08-19T06:43:33;17.90;;;16.30;;
4553;SDS011;2289;48.316;15.174;2022-08-19T06:46:11;15.30;;;13.90;;
4553;SDS011;2289;48.316;15.174;2022-08-19T06:48:40;15.70;;;13.53;;
4553;SDS011;2289;48.316;15.174;2022-08-19T06:51:11;18.27;;;16.57;;
4553;SDS011;2289;48.316;15.174;2022-08-19T06:53:45;16.07;;;14.67;;
4553;SDS011;2289;48.316;15.174;2022-08-19T06:56:17;15.40;;;14.10;;
4553;SDS011;2289;48.316;15.174;2022-08-19T06:58:47;13.33;;;12.20;;
4553;SDS011;2289;48.316;15.174;2022-08-19T07:01:17;14.80;;;13.37;;
4553;SDS011;2289;48.316;15.174;2022-08-19T07:03:46;15.33;;;13.73;;
4553;SDS011;2289;48.316;15.174;2022-08-19T07:06:16;12.63;;;11.43;;
4553;SDS011;2289;48.316;15.174;2022-08-19T07:09:09;13.53;;;12.33;;
4553;SDS011;2289;48.316;15.174;2022-08-19T07:11:45;15.20;;;13.90;;
4553;SDS011;2289;48.316;15.174;2022-08-19T07:14:16;16.47;;;14.33;;
4553;SDS011;2289;48.316;15.174;2022-08-19T07:16:46;14.63;;;13.33;;
4553;SDS011;2289;48.316;15.174;2022-08-19T07:19:15;13.40;;;12.30;;
4553;SDS011;2289;48.316;15.174;2022-08-19T07:21:45;13.20;;;12.10;;
4553;SDS011;2289;48.316;15.174;2022-08-19T07:24:14;16.53;;;15.07;;
4553;SDS011;2289;48.316;15.174;2022-08-19T07:26:47;20.00;;;18.10;;
4553;SDS011;2289;48.316;15.174;2022-08-19T07:29:17;16.73;;;15.27;;
4553;SDS011;2289;48.316;15.174;2022-08-19T07:31:54;17.57;;;15.60;;
4553;SDS011;2289;48.316;15.174;2022-08-19T07:34:26;14.63;;;13.13;;
4553;SDS011;2289;48.316;15.174;2022-08-19T07:36:56;16.70;;;15.20;;
4553;SDS011;2289;48.316;15.174;2022-08-19T07:39:27;16.03;;;14.47;;
4553;SDS011;2289;48.316;15.174;2022-08-19T07:42:00;13.67;;;12.47;;
4553;SDS011;2289;48.316;15.174;2022-08-19T07:44:29;20.33;;;18.37;;
4553;SDS011;2289;48.316;15.174;2022-08-19T07:46:58;20.20;;;18.37;;
4553;SDS011;2289;48.316;15.174;2022-08-19T07:49:26;20.93;;;19.00;;
4553;SDS011;2289;48.316;15.174;2022-08-19T07:51:56;15.90;;;14.33;;
4553;SDS011;2289;48.316;15.174;2022-08-19T07:54:26;20.87;;;18.23;;
4553;SDS011;2289;48.316;15.174;2022-08-19T07:56:56;19.77;;;17.77;;
4553;SDS011;2289;48.316;15.174;2022-08-19T07:59:26;20.90;;;16.37;;
4553;SDS011;2289;48.316;15.174;2022-08-19T08:01:57;15.77;;;14.17;;
4553;SDS011;2289;48.316;15.174;2022-08-19T08:04:27;17.77;;;16.07;;
4553;SDS011;2289;48.316;15.174;2022-08-19T08:07:14;16.60;;;15.00;;
4553;SDS011;2289;48.316;15.174;2022-08-19T08:10:00;14.07;;;12.77;;
4553;SDS011;2289;48.316;15.174;2022-08-19T08:12:30;11.97;;;10.87;;
4553;SDS011;2289;48.316;15.174;2022-08-19T08:15:04;12.83;;;11.60;;
4553;SDS011;2289;48.316;15.174;2022-08-19T08:17:38;13.87;;;12.57;;
4553;SDS011;2289;48.316;15.174;2022-08-19T08:20:15;12.87;;;11.67;;
4553;SDS011;2289;48.316;15.174;2022-08-19T08:22:44;11.00;;;10.10;;
4553;SDS011;2289;48.316;15.174;2022-08-19T08:25:30;11.90;;;10.83;;
4553;SDS011;2289;48.316;15.174;2022-08-19T08:28:00;12.10;;;9.47;;
4553;SDS011;2289;48.316;15.174;2022-08-19T08:30:31;9.30;;;8.40;;
4553;SDS011;2289;48.316;15.174;2022-08-19T08:33:02;10.50;;;9.50;;
4553;SDS011;2289;48.316;15.174;2022-08-19T08:35:31;11.43;;;9.10;;
4553;SDS011;2289;48.316;15.174;2022-08-19T08:37:59;11.07;;;9.97;;
4553;SDS011;2289;48.316;15.174;2022-08-19T08:40:31;13.73;;;11.87;;
4553;SDS011;2289;48.316;15.174;2022-08-19T08:43:06;10.50;;;9.70;;
4553;SDS011;2289;48.316;15.174;2022-08-19T08:45:41;12.63;;;11.43;;
4553;SDS011;2289;48.316;15.174;2022-08-19T08:48:22;13.97;;;12.77;;
4553;SDS011;2289;48.316;15.174;2022-08-19T08:50:53;13.53;;;12.20;;
4553;SDS011;2289;48.316;15.174;2022-08-19T08:53:22;11.10;;;10.10;;
4553;SDS011;2289;48.316;15.174;2022-08-19T08:55:58;13.80;;;12.50;;
4553;SDS011;2289;48.316;15.174;2022-08-19T08:58:32;15.33;;;13.67;;
4553;SDS011;2289;48.316;15.174;2022-08-19T09:01:10;12.83;;;11.40;;
4553;SDS011;2289;48.316;15.174;2022-08-19T09:03:40;12.37;;;11.10;;
4553;SDS011;2289;48.316;15.174;2022-08-19T09:06:11;11.07;;;9.97;;
4553;SDS011;2289;48.316;15.174;2022-08-19T09:08:45;13.50;;;12.33;;
4553;SDS011;2289;48.316;15.174;2022-08-19T09:11:23;11.03;;;9.93;;
4553;SDS011;2289;48.316;15.174;2022-08-19T09:14:14;13.00;;;11.70;;
4553;SDS011;2289;48.316;15.174;2022-08-19T09:17:09;13.40;;;12.10;;
4553;SDS011;2289;48.316;15.174;2022-08-19T09:19:46;14.30;;;12.00;;
4553;SDS011;2289;48.316;15.174;2022-08-19T09:22:18;14.00;;;12.53;;
4553;SDS011;2289;48.316;15.174;2022-08-19T09:24:53;15.13;;;13.53;;
4553;SDS011;2289;48.316;15.174;2022-08-19T09:27:22;19.13;;;12.97;;
4553;SDS011;2289;48.316;15.174;2022-08-19T09:30:11;14.23;;;11.20;;
4553;SDS011;2289;48.316;15.174;2022-08-19T09:32:44;15.10;;;11.23;;
4553;SDS011;2289;48.316;15.174;2022-08-19T09:35:19;14.17;;;12.77;;
4553;SDS011;2289;48.316;15.174;2022-08-19T09:37:50;18.70;;;14.87;;
4553;SDS011;2289;48.316;15.174;2022-08-19T09:40:23;12.77;;;11.57;;
4553;SDS011;2289;48.316;15.174;2022-08-19T09:42:55;17.37;;;15.80;;
4553;SDS011;2289;48.316;15.174;2022-08-19T09:45:24;14.30;;;12.80;;
4553;SDS011;2289;48.316;15.174;2022-08-19T09:47:53;14.70;;;13.43;;
4553;SDS011;2289;48.316;15.174;2022-08-19T09:50:22;16.70;;;13.00;;
4553;SDS011;2289;48.316;15.174;2022-08-19T09:52:51;15.10;;;13.70;;
4553;SDS011;2289;48.316;15.174;2022-08-19T09:55:24;17.10;;;15.47;;
4553;SDS011;2289;48.316;15.174;2022-08-19T09:57:57;20.47;;;18.70;;
4553;SDS011;2289;48.316;15.174;2022-08-19T10:00:26;20.30;;;18.20;;
4553;SDS011;2289;48.316;15.174;2022-08-19T10:02:56;19.43;;;17.53;;
4553;SDS011;2289;48.316;15.174;2022-08-19T10:05:24;16.63;;;15.00;;
4553;SDS011;2289;48.316;15.174;2022-08-19T10:08:14;16.53;;;14.80;;
4553;SDS011;2289;48.316;15.174;2022-08-19T10:10:46;15.80;;;14.20;;
4553;SDS011;2289;48.316;15.174;2022-08-19T10:13:15;18.97;;;17.23;;
4553;SDS011;2289;48.316;15.174;2022-08-19T10:15:48;15.40;;;14.00;;
4553;SDS011;2289;48.316;15.174;2022-08-19T10:18:20;16.90;;;13.77;;
4553;SDS011;2289;48.316;15.174;2022-08-19T10:20:49;14.83;;;12.40;;
4553;SDS011;2289;48.316;15.174;2022-08-19T10:23:19;14.10;;;12.70;;
4553;SDS011;2289;48.316;15.174;2022-08-19T10:25:48;13.03;;;10.43;;
4553;SDS011;2289;48.316;15.174;2022-08-19T10:28:19;15.40;;;12.73;;
4553;SDS011;2289;48.316;15.174;2022-08-19T10:30:49;12.53;;;9.20;;
4553;SDS011;2289;48.316;15.174;2022-08-19T10:33:18;9.10;;;7.73;;
4553;SDS011;2289;48.316;15.174;2022-08-19T10:36:07;7.03;;;5.67;;
4553;SDS011;2289;48.316;15.174;2022-08-19T10:38:37;8.10;;;7.30;;
4553;SDS011;2289;48.316;15.174;2022-08-19T10:41:18;8.47;;;7.07;;
4553;SDS011;2289;48.316;15.174;2022-08-19T10:43:50;6.47;;;5.97;;
4553;SDS011;2289;48.316;15.174;2022-08-19T10:46:21;7.87;;;6.90;;
4553;SDS011;2289;48.316;15.174;2022-08-19T10:48:52;8.43;;;7.63;;
4553;SDS011;2289;48.316;15.174;2022-08-19T10:51:21;7.47;;;6.77;;
4553;SDS011;2289;48.316;15.174;2022-08-19T10:54:14;8.63;;;7.67;;
4553;SDS011;2289;48.316;15.174;2022-08-19T10:56:56;7.63;;;6.97;;
4553;SDS011;2289;48.316;15.174;2022-08-19T10:59:24;8.70;;;7.90;;
4553;SDS011;2289;48.316;15.174;2022-08-19T11:02:00;7.63;;;6.47;;
4553;SDS011;2289;48.316;15.174;2022-08-19T11:04:30;7.53;;;6.70;;
4553;SDS011;2289;48.316;15.174;2022-08-19T11:07:01;7.27;;;6.63;;
4553;SDS011;2289;48.316;15.174;2022-08-19T11:09:29;10.13;;;7.30;;
4553;SDS011;2289;48.316;15.174;2022-08-19T11:11:59;6.90;;;6.40;;
4553;SDS011;2289;48.316;15.174;2022-08-19T11:14:31;10.43;;;7.77;;
4553;SDS011;2289;48.316;15.174;2022-08-19T11:17:00;8.50;;;6.80;;
4553;SDS011;2289;48.316;15.174;2022-08-19T11:19:29;6.83;;;6.13;;
4553;SDS011;2289;48.316;15.174;2022-08-19T11:21:58;10.43;;;7.13;;
4553;SDS011;2289;48.316;15.174;2022-08-19T11:24:29;8.43;;;5.50;;
4553;SDS011;2289;48.316;15.174;2022-08-19T11:27:03;5.97;;;5.47;;
4553;SDS011;2289;48.316;15.174;2022-08-19T11:29:33;15.33;;;6.30;;
4553;SDS011;2289;48.316;15.174;2022-08-19T11:32:09;10.30;;;6.87;;
4553;SDS011;2289;48.316;15.174;2022-08-19T11:34:41;10.63;;;5.70;;
4553;SDS011;2289;48.316;15.174;2022-08-19T11:37:09;10.63;;;6.50;;
4553;SDS011;2289;48.316;15.174;2022-08-19T11:39:37;6.80;;;5.83;;
4553;SDS011;2289;48.316;15.174;2022-08-19T11:42:06;9.60;;;5.33;;
4553;SDS011;2289;48.316;15.174;2022-08-19T11:44:48;6.53;;;5.40;;
4553;SDS011;2289;48.316;15.174;2022-08-19T11:47:17;8.30;;;6.50;;
4553;SDS011;2289;48.316;15.174;2022-08-19T11:49:47;6.67;;;6.07;;
4553;SDS011;2289;48.316;15.174;2022-08-19T11:52:15;6.67;;;5.97;;
4553;SDS011;2289;48.316;15.174;2022-08-19T11:54:43;7.43;;;6.03;;
4553;SDS011;2289;48.316;15.174;2022-08-19T11:57:11;12.00;;;6.50;;
4553;SDS011;2289;48.316;15.174;2022-08-19T11:59:47;10.93;;;6.03;;
4553;SDS011;2289;48.316;15.174;2022-08-19T12:02:15;10.20;;;6.30;;
4553;SDS011;2289;48.316;15.174;2022-08-19T12:04:44;12.23;;;7.30;;
4553;SDS011;2289;48.316;15.174;2022-08-19T12:07:13;7.87;;;5.60;;
4553;SDS011;2289;48.316;15.174;2022-08-19T12:09:41;7.20;;;6.50;;
4553;SDS011;2289;48.316;15.174;2022-08-19T12:12:11;7.33;;;5.93;;
4553;SDS011;2289;48.316;15.174;2022-08-19T12:14:39;14.67;;;7.47;;
4553;SDS011;2289;48.316;15.174;2022-08-19T12:17:07;9.50;;;6.77;;
4553;SDS011;2289;48.316;15.174;2022-08-19T12:19:39;9.70;;;7.10;;
4553;SDS011;2289;48.316;15.174;2022-08-19T12:22:07;13.90;;;7.90;;
4553;SDS011;2289;48.316;15.174;2022-08-19T12:24:36;7.63;;;6.70;;
4553;SDS011;2289;48.316;15.174;2022-08-19T12:27:05;8.27;;;7.50;;
4553;SDS011;2289;48.316;15.174;2022-08-19T12:29:38;8.43;;;7.73;;
4553;SDS011;2289;48.316;15.174;2022-08-19T12:32:07;9.23;;;8.40;;
4553;SDS011;2289;48.316;15.174;2022-08-19T12:34:37;11.03;;;8.80;;
4553;SDS011;2289;48.316;15.174;2022-08-19T12:37:06;8.47;;;6.90;;
4553;SDS011;2289;48.316;15.174;2022-08-19T12:39:37;9.33;;;7.80;;
4553;SDS011;2289;48.316;15.174;2022-08-19T12:42:08;12.10;;;8.00;;
4553;SDS011;2289;48.316;15.174;2022-08-19T12:44:37;7.77;;;6.97;;
4553;SDS011;2289;48.316;15.174;2022-08-19T12:47:08;8.57;;;6.90;;
4553;SDS011;2289;48.316;15.174;2022-08-19T12:49:39;10.17;;;9.07;;
4553;SDS011;2289;48.316;15.174;2022-08-19T12:52:20;8.97;;;8.10;;
4553;SDS011;2289;48.316;15.174;2022-08-19T12:54:50;10.30;;;7.77;;
4553;SDS011;2289;48.316;15.174;2022-08-19T12:57:20;11.93;;;8.33;;
4553;SDS011;2289;48.316;15.174;2022-08-19T12:59:58;7.90;;;7.10;;
4553;SDS011;2289;48.316;15.174;2022-08-19T13:02:31;10.30;;;7.40;;
4553;SDS011;2289;48.316;15.174;2022-08-19T13:05:05;8.63;;;7.83;;
4553;SDS011;2289;48.316;15.174;2022-08-19T13:07:36;9.00;;;8.10;;
4553;SDS011;2289;48.316;15.174;2022-08-19T13:10:07;15.00;;;8.93;;
4553;SDS011;2289;48.316;15.174;2022-08-19T13:12:37;9.07;;;8.07;;
4553;SDS011;2289;48.316;15.174;2022-08-19T13:15:07;11.07;;;8.67;;
4553;SDS011;2289;48.316;15.174;2022-08-19T13:17:37;8.40;;;7.70;;
4553;SDS011;2289;48.316;15.174;2022-08-19T13:20:07;8.43;;;7.53;;
4553;SDS011;2289;48.316;15.174;2022-08-19T13:22:38;10.93;;;7.53;;
4553;SDS011;2289;48.316;15.174;2022-08-19T13:25:08;10.03;;;8.10;;
4553;SDS011;2289;48.316;15.174;2022-08-19T13:27:37;11.03;;;8.70;;
4553;SDS011;2289;48.316;15.174;2022-08-19T13:30:06;7.73;;;7.07;;
4553;SDS011;2289;48.316;15.174;2022-08-19T13:32:53;7.77;;;7.00;;
4553;SDS011;2289;48.316;15.174;2022-08-19T13:35:42;10.00;;;8.63;;
4553;SDS011;2289;48.316;15.174;2022-08-19T13:38:12;11.13;;;9.33;;
4553;SDS011;2289;48.316;15.174;2022-08-19T13:40:43;9.07;;;8.03;;
4553;SDS011;2289;48.316;15.174;2022-08-19T13:43:11;8.70;;;8.00;;
4553;SDS011;2289;48.316;15.174;2022-08-19T13:45:48;12.60;;;8.10;;
4553;SDS011;2289;48.316;15.174;2022-08-19T13:48:19;8.53;;;7.57;;
4553;SDS011;2289;48.316;15.174;2022-08-19T13:50:47;13.50;;;8.23;;
4553;SDS011;2289;48.316;15.174;2022-08-19T13:53:16;14.33;;;8.73;;
4553;SDS011;2289;48.316;15.174;2022-08-19T13:55:46;8.40;;;7.00;;
4553;SDS011;2289;48.316;15.174;2022-08-19T13:58:14;14.80;;;9.20;;
4553;SDS011;2289;48.316;15.174;2022-08-19T14:00:43;7.67;;;6.87;;
4553;SDS011;2289;48.316;15.174;2022-08-19T14:03:12;9.10;;;6.87;;
4553;SDS011;2289;48.316;15.174;2022-08-19T14:05:40;8.33;;;7.50;;
4553;SDS011;2289;48.316;15.174;2022-08-19T14:08:08;11.37;;;6.40;;
4553;SDS011;2289;48.316;15.174;2022-08-19T14:10:40;11.13;;;7.77;;
4553;SDS011;2289;48.316;15.174;2022-08-19T14:13:12;7.67;;;6.53;;
4553;SDS011;2289;48.316;15.174;2022-08-19T14:15:42;11.10;;;7.90;;
4553;SDS011;2289;48.316;15.174;2022-08-19T14:18:10;8.17;;;7.00;;
4553;SDS011;2289;48.316;15.174;2022-08-19T14:20:38;22.13;;;7.23;;
4553;SDS011;2289;48.316;15.174;2022-08-19T14:23:07;10.20;;;6.27;;
4553;SDS011;2289;48.316;15.174;2022-08-19T14:25:38;7.60;;;5.80;;
4553;SDS011;2289;48.316;15.174;2022-08-19T14:28:06;10.30;;;6.47;;
4553;SDS011;2289;48.316;15.174;2022-08-19T14:30:39;9.60;;;6.00;;
4553;SDS011;2289;48.316;15.174;2022-08-19T14:33:07;8.97;;;6.03;;
4553;SDS011;2289;48.316;15.174;2022-08-19T14:35:36;12.60;;;6.07;;
4553;SDS011;2289;48.316;15.174;2022-08-19T14:38:04;11.80;;;6.40;;
4553;SDS011;2289;48.316;15.174;2022-08-19T14:40:34;7.77;;;5.90;;
4553;SDS011;2289;48.316;15.174;2022-08-19T14:43:03;9.97;;;6.10;;
4553;SDS011;2289;48.316;15.174;2022-08-19T14:45:32;7.23;;;6.53;;
4553;SDS011;2289;48.316;15.174;2022-08-19T14:48:04;7.47;;;5.60;;
4553;SDS011;2289;48.316;15.174;2022-08-19T14:50:44;9.43;;;6.73;;
4553;SDS011;2289;48.316;15.174;2022-08-19T14:53:12;13.30;;;6.40;;
4553;SDS011;2289;48.316;15.174;2022-08-19T14:55:41;7.80;;;5.40;;
4553;SDS011;2289;48.316;15.174;2022-08-19T14:58:09;13.90;;;6.50;;
4553;SDS011;2289;48.316;15.174;2022-08-19T15:00:56;6.73;;;5.00;;
4553;SDS011;2289;48.316;15.174;2022-08-19T15:03:27;12.37;;;5.90;;
4553;SDS011;2289;48.316;15.174;2022-08-19T15:05:55;11.00;;;5.97;;
4553;SDS011;2289;48.316;15.174;2022-08-19T15:08:25;11.33;;;5.97;;
4553;SDS011;2289;48.316;15.174;2022-08-19T15:10:54;9.83;;;7.17;;
4553;SDS011;2289;48.316;15.174;2022-08-19T15:13:23;13.50;;;5.43;;
4553;SDS011;2289;48.316;15.174;2022-08-19T15:15:51;8.90;;;6.50;;